createdAt,value
2022-08-20T07:12:29.894Z,4.70
2022-08-20T07:15:54.871Z,3.50
2022-08-20T07:19:09.878Z,2.47
2022-08-20T07:22:33.902Z,5.35
2022-08-20T07:25:45.985Z,2.57
2022-08-20T07:29:11.901Z,2.80
2022-08-20T07:32:18.106Z,5.53
2022-08-20T07:35:41.948Z,5.10
2022-08-20T07:38:53.980Z,2.90
2022-08-20T07:42:06.939Z,3.25
2022-08-20T07:45:21.042Z,4.27
2022-08-20T07:48:44.952Z,1.33
2022-08-20T07:51:56.959Z,3.33
2022-08-20T07:55:08.991Z,3.33
2022-08-20T07:58:21.019Z,2.80
2022-08-20T08:01:47.016Z,1.83
2022-08-20T08:05:00.000Z,2.27
2022-08-20T08:08:12.027Z,4.67
2022-08-20T08:11:26.067Z,2.43
2022-08-20T08:14:38.025Z,1.90
2022-08-20T08:18:04.034Z,4.10
2022-08-20T08:21:16.038Z,3.87
2022-08-20T08:24:41.082Z,3.37
2022-08-20T08:27:53.095Z,3.67
2022-08-20T08:31:06.119Z,1.53
2022-08-20T09:32:36.254Z,2.30
2022-08-20T09:35:49.302Z,27.53
2022-08-20T09:38:50.342Z,18.87
2022-08-20T09:42:03.328Z,28.07
2022-08-20T09:45:15.334Z,25.07
2022-08-20T09:48:41.398Z,126.07
2022-08-20T09:51:42.322Z,57.80
2022-08-20T09:55:07.357Z,36.63
2022-08-20T09:58:19.370Z,27.53
2022-08-20T10:01:43.468Z,23.83
2022-08-20T10:05:12.335Z,22.83
2022-08-20T10:08:22.402Z,12.90
2022-08-20T10:11:35.428Z,12.70
2022-08-20T10:14:36.415Z,11.00
2022-08-20T10:18:01.436Z,10.67
2022-08-20T10:21:14.534Z,9.07
2022-08-20T10:24:26.461Z,12.47
2022-08-20T10:27:27.476Z,3.70
2022-08-20T10:30:51.426Z,2.90
2022-08-20T10:34:03.496Z,4.70
2022-08-20T10:37:29.486Z,2.20
2022-08-20T10:40:29.478Z,2.50
2022-08-20T10:43:54.467Z,5.23
2022-08-20T10:46:57.124Z,3.83
2022-08-20T10:50:19.544Z,2.60
2022-08-20T10:53:33.550Z,3.00
2022-08-20T10:56:46.499Z,3.67
2022-08-20T11:00:02.713Z,1.53
2022-08-20T11:03:26.607Z,2.13
2022-08-20T11:06:27.566Z,2.27
2022-08-20T11:09:55.543Z,1.60
2022-08-20T11:13:07.612Z,1.85
2022-08-20T11:16:20.633Z,3.20
2022-08-20T11:19:21.585Z,4.07
2022-08-20T11:22:45.636Z,3.23
2022-08-20T11:25:58.721Z,3.40
2022-08-20T11:29:12.654Z,2.00
2022-08-20T11:35:49.709Z,2.20
2022-08-20T11:38:49.662Z,1.50
2022-08-20T11:42:15.783Z,1.80
2022-08-20T11:45:27.704Z,2.50
2022-08-20T11:48:40.686Z,1.20
2022-08-20T11:58:10.733Z,3.30
2022-08-20T13:45:14.026Z,1.50
2022-08-20T13:48:27.085Z,3.10
2022-08-20T14:04:42.098Z,2.75
2022-08-20T14:07:55.108Z,3.23
2022-08-20T14:11:20.126Z,2.40
2022-08-20T14:14:21.110Z,3.67
2022-08-20T14:17:45.144Z,4.20
2022-08-20T14:20:57.220Z,2.90
2022-08-20T14:24:24.113Z,8.77
2022-08-20T14:27:36.148Z,3.53
2022-08-20T14:30:53.302Z,4.10
2022-08-20T14:33:50.184Z,4.05
2022-08-20T14:37:03.219Z,1.90
2022-08-20T14:40:30.226Z,1.97
2022-08-20T14:43:44.201Z,4.45
2022-08-20T14:46:45.229Z,1.70
2022-08-20T14:50:09.296Z,2.28
2022-08-20T14:53:21.292Z,3.67
2022-08-20T14:56:47.236Z,2.77
2022-08-20T14:59:59.345Z,3.90
2022-08-20T15:03:12.260Z,5.30
2022-08-20T15:06:24.413Z,6.00
2022-08-20T15:09:49.294Z,3.40
2022-08-20T15:13:04.322Z,11.60
2022-08-20T15:16:17.313Z,1.60
2022-08-20T15:19:29.377Z,1.80
2022-08-20T15:22:42.349Z,3.27
2022-08-20T15:25:54.373Z,4.23
2022-08-20T15:29:23.654Z,3.20
2022-08-20T15:32:35.356Z,6.07
2022-08-20T15:39:00.381Z,3.43
2022-08-20T15:45:37.410Z,2.13
2022-08-20T15:49:01.387Z,4.90
2022-08-20T15:52:13.480Z,2.50
2022-08-20T15:55:37.491Z,2.00
2022-08-20T15:58:50.410Z,1.45
2022-08-20T17:38:46.757Z,2.70
2022-08-20T17:58:38.766Z,1.80
2022-08-20T18:01:39.784Z,3.13
2022-08-20T18:05:03.804Z,1.93
2022-08-20T18:08:19.814Z,3.27
2022-08-20T18:11:43.836Z,2.13
2022-08-20T18:15:00.844Z,2.75
2022-08-20T18:18:26.844Z,3.43
2022-08-20T18:22:06.861Z,3.90
2022-08-20T18:25:30.883Z,4.43
2022-08-20T18:28:42.867Z,3.37
2022-08-20T18:32:10.865Z,2.95
2022-08-20T18:35:32.906Z,6.37
2022-08-20T18:38:56.907Z,3.83
